This is the latest recevied weather packets stored in our database for station/object W7MKM-13. If no packets are shown the sender has not sent any weather packets the latest 10 day(s).
| Time | Temp. | Humidity | Pressure | Rain* | Wind** | Luminosity | Snow |
|---|---|---|---|---|---|---|---|
| 1777215917 | 8.33° C | 83% | 1001.8 hPa | 0.25 mm | - | 138 W/m² | - |
| 1777212317 | 7.78° C | 83% | 1002.5 hPa | 0.25 mm | - | 55 W/m² | - |
| 1777208417 | 7.78° C | 88% | 1002.7 hPa | 0.76 mm | - | 7 W/m² | - |
| 1777208117 | 7.22° C | 87% | 1002.7 hPa | 1.02 mm | - | 5 W/m² | - |
| 1777207217 | 7.22° C | 87% | 1002.7 hPa | 1.02 mm | - | 0 W/m² | - |
| 1777205717 | 7.22° C | 86% | 1003.4 hPa | 1.02 mm | - | 0 W/m² | - |
| 1777202117 | 8.89° C | 83% | 1004.2 hPa | 0.25 mm | - | 0 W/m² | - |
| 1777198517 | 8.89° C | 83% | 1004.4 hPa | 0 mm | - | 0 W/m² | - |
| 1777197317 | 8.89° C | 84% | 1004.5 hPa | 0.25 mm | - | 0 W/m² | - |
| 1777194349 | 8.89° C | 81% | 1004.5 hPa | 1.27 mm | - | 0 W/m² | - |
| 1777189817 | 11.11° C | 63% | 1005.8 hPa | 0 mm | - | 0 W/m² | - |
| 1777188617 | 12.78° C | 55% | 1006.1 hPa | 0 mm | - | 0 W/m² | - |
| 1777186817 | 13.33° C | 42% | 1005.6 hPa | 0 mm | - | 0 W/m² | - |
| 1777183517 | 11.67° C | 44% | 1005 hPa | 0 mm | - | 0 W/m² | - |
| 1777183217 | 11.67° C | 44% | 1004.9 hPa | 0 mm | - | 0 W/m² | - |
| 1777180815 | 11.67° C | 42% | 1004.8 hPa | 0 mm | - | 0 W/m² | - |
| 1777179015 | 12.22° C | 42% | 1005.2 hPa | 0 mm | - | 0 W/m² | - |
| 1777177515 | 12.78° C | 41% | 1004.9 hPa | 0 mm | - | 0 W/m² | - |
| 1777172715 | 13.89° C | 35% | 1005 hPa | 0 mm | - | 0 W/m² | - |
| 1777172115 | 13.89° C | 35% | 1004.7 hPa | 0 mm | - | 0 W/m² | - |
| 1777171216 | 14.44° C | 34% | 1004.8 hPa | 0 mm | - | 0 W/m² | - |
| 1777170916 | 14.44° C | 34% | 1004.9 hPa | 0 mm | - | 0 W/m² | - |
| 1777169416 | 15° C | 32% | 1004.2 hPa | 0 mm | - | 7 W/m² | - |
| 1777169116 | 15° C | 32% | 1004.2 hPa | 0 mm | - | 12 W/m² | - |
| 1777166416 | 15.56° C | 30% | 1003.8 hPa | 0 mm | - | 98 W/m² | - |
* Rain latest hour (hover to see other rain measurements)
** Current wind speed in m/s (hover to see current wind gust speed)